Time;durP1;ratioP1;P1;durP2;ratioP2;P2;SDS_P1;SDS_P2;PMS_P1;PMS_P2;Temp;Humidity;BMP_temperature;BMP_pressure;BME280_temperature;BME280_humidity;BME280_pressure;Samples;Min_cycle;Max_cycle;Signal;HPM_P1;HPM_P2
2022/11/17 00:01:20;;;;;;;39.70;6.15;;;1.70;99.90;;;;;;4716741;30;20064;-83
2022/11/17 00:03:49;;;;;;;13.77;5.15;;;1.50;99.90;;;;;;4701920;30;20045;-83
2022/11/17 00:06:20;;;;;;;7.28;3.70;;;1.40;99.90;;;;;;4716462;30;20050;-83
2022/11/17 00:08:48;;;;;;;;;;;1.40;99.90;;;;;;4716694;30;20057;-83
2022/11/17 00:11:15;;;;;;;23.88;7.28;;;1.50;99.90;;;;;;4717299;30;19996;-83
2022/11/17 00:16:29;;;;;;;245.43;14.98;;;2.10;99.90;;;;;;4717111;30;20052;-83
2022/11/17 00:21:42;;;;;;;46.50;9.75;;;1.60;99.90;;;;;;4716627;30;20053;-83
2022/11/17 00:24:10;;;;;;;35.80;6.65;;;1.40;99.90;;;;;;4713081;30;20049;-83
2022/11/17 00:27:00;;;;;;;6.68;5.35;;;1.30;99.90;;;;;;4699909;30;20053;-83
2022/11/17 00:29:24;;;;;;;13.18;4.65;;;1.30;99.90;;;;;;4684142;30;20528;-83
2022/11/17 00:34:38;;;;;;;8.82;5.03;;;1.50;99.90;;;;;;4713451;30;20060;-83
2022/11/17 00:37:07;;;;;;;15.77;4.63;;;1.70;99.90;;;;;;4683634;30;20057;-83
2022/11/17 00:39:34;;;;;;;4.80;4.38;;;1.90;99.90;;;;;;4712828;30;20505;-83
2022/11/17 00:42:02;;;;;;;4.53;3.90;;;2.00;99.90;;;;;;4684577;30;20394;-83
2022/11/17 00:44:30;;;;;;;13.40;5.05;;;2.00;99.90;;;;;;4697607;30;20061;-84
2022/11/17 00:46:57;;;;;;;9.98;4.30;;;2.00;99.90;;;;;;4699191;30;20064;-83
2022/11/17 00:49:25;;;;;;;13.98;4.43;;;1.90;99.90;;;;;;4698902;30;20061;-83
2022/11/17 00:51:54;;;;;;;115.93;12.10;;;1.90;99.90;;;;;;4712975;30;20053;-83
2022/11/17 00:54:21;;;;;;;18.10;5.07;;;1.90;99.90;;;;;;4698633;30;20064;-83
2022/11/17 00:56:49;;;;;;;94.38;8.88;;;1.80;99.90;;;;;;4698113;30;20058;-83
2022/11/17 00:59:16;;;;;;;184.27;14.85;;;1.90;99.90;;;;;;4698431;30;20041;-84
2022/11/17 01:01:45;;;;;;;39.55;8.07;;;2.00;99.90;;;;;;4700000;30;20062;-84
2022/11/17 01:04:14;;;;;;;34.28;5.38;;;2.10;99.90;;;;;;4699526;30;20050;-84
2022/11/17 01:06:44;;;;;;;4.90;4.50;;;2.20;99.90;;;;;;4699326;30;20497;-85
2022/11/17 01:09:18;;;;;;;40.03;6.18;;;2.20;99.90;;;;;;4699024;30;20057;-84
2022/11/17 01:11:47;;;;;;;12.50;3.80;;;2.20;99.90;;;;;;4699344;30;20053;-85
2022/11/17 01:14:24;;;;;;;18.45;4.60;;;2.10;99.90;;;;;;4699680;30;20492;-84
2022/11/17 01:16:52;;;;;;;5.80;3.72;;;2.00;99.90;;;;;;4697968;30;20053;-84
2022/11/17 01:19:22;;;;;;;6.95;3.28;;;1.90;99.90;;;;;;4712647;30;20045;-85
2022/11/17 01:21:49;;;;;;;41.10;5.28;;;1.90;99.90;;;;;;4698560;30;20049;-85
2022/11/17 01:24:17;;;;;;;5.18;4.10;;;1.80;99.90;;;;;;4712623;30;20397;-84
2022/11/17 01:26:45;;;;;;;21.90;4.97;;;1.80;99.90;;;;;;4683555;30;20069;-84
2022/11/17 01:29:15;;;;;;;7.20;3.33;;;1.80;99.90;;;;;;4698312;30;20084;-84
2022/11/17 01:31:48;;;;;;;4.50;4.18;;;1.70;99.90;;;;;;4698485;30;20049;-84
2022/11/17 01:34:15;;;;;;;5.10;4.68;;;1.80;99.90;;;;;;4699554;30;20061;-85
2022/11/17 01:39:30;;;;;;;4.15;3.83;;;1.90;99.90;;;;;;4683690;30;20045;-84
2022/11/17 01:42:02;;;;;;;4.57;4.28;;;2.00;99.90;;;;;;4712823;30;20046;-85
2022/11/17 01:45:02;;;;;;;4.30;3.63;;;2.00;99.90;;;;;;4706794;30;20060;-85
2022/11/17 01:47:36;;;;;;;6.25;4.65;;;2.10;99.90;;;;;;4697592;30;20064;-84
2022/11/17 01:50:33;;;;;;;4.45;4.15;;;2.10;99.90;;;;;;4698395;30;20057;-84
2022/11/17 01:53:06;;;;;;;8.30;3.45;;;2.00;99.90;;;;;;4697879;30;20709;-85
2022/11/17 01:55:44;;;;;;;4.97;4.15;;;1.90;99.90;;;;;;4697789;30;20061;-85
2022/11/17 01:58:16;;;;;;;4.47;4.07;;;2.10;99.90;;;;;;4701076;30;20061;-85
2022/11/17 02:00:44;;;;;;;5.97;4.72;;;2.10;99.90;;;;;;4700949;30;20077;-85
2022/11/17 02:03:12;;;;;;;3.95;3.65;;;2.10;99.90;;;;;;4715276;30;20060;-84
2022/11/17 02:06:06;;;;;;;4.35;3.95;;;2.00;99.90;;;;;;4701291;30;20058;-84
2022/11/17 02:08:37;;;;;;;5.90;5.30;;;2.10;99.90;;;;;;4685811;30;20050;-84
2022/11/17 02:11:11;;;;;;;4.40;4.07;;;2.10;99.90;;;;;;4715023;30;20072;-84
2022/11/17 02:13:41;;;;;;;4.97;3.92;;;2.10;99.90;;;;;;4715716;30;20061;-84
2022/11/17 02:16:11;;;;;;;4.70;4.30;;;2.10;99.90;;;;;;4700764;30;20056;-84
2022/11/17 02:18:42;;;;;;;4.68;4.15;;;2.10;99.90;;;;;;4702449;30;20065;-85
2022/11/17 02:21:49;;;;;;;3.88;3.58;;;2.10;99.90;;;;;;4715031;30;20070;-85
2022/11/17 02:24:44;;;;;;;7.35;4.72;;;2.20;99.90;;;;;;4703130;30;20053;-84
2022/11/17 02:27:28;;;;;;;3.88;3.53;;;2.20;99.90;;;;;;4700296;30;20421;-84
2022/11/17 02:30:13;;;;;;;5.10;4.20;;;2.20;99.90;;;;;;4715606;30;20065;-84
2022/11/17 02:32:59;;;;;;;4.32;3.75;;;2.30;99.90;;;;;;4703724;30;20060;-85
2022/11/17 02:35:38;;;;;;;5.47;4.93;;;2.40;99.90;;;;;;4700278;30;20401;-84
2022/11/17 02:38:19;;;;;;;5.63;5.10;;;2.40;99.90;;;;;;4686147;30;20061;-84
2022/11/17 02:40:52;;;;;;;5.87;5.20;;;2.50;99.90;;;;;;4715035;30;20064;-84
2022/11/17 02:46:19;;;;;;;5.25;4.75;;;2.50;99.90;;;;;;4685818;30;20066;-85
2022/11/17 02:49:00;;;;;;;6.72;3.92;;;2.60;99.90;;;;;;4701505;30;20057;-85
2022/11/17 02:51:29;;;;;;;6.13;4.95;;;2.50;99.90;;;;;;4713603;30;20062;-84
2022/11/17 02:53:58;;;;;;;13.07;5.30;;;2.50;99.90;;;;;;4703591;30;20061;-85
2022/11/17 02:56:26;;;;;;;5.88;5.32;;;2.60;99.90;;;;;;4717460;30;20068;-85
2022/11/17 02:58:59;;;;;;;5.35;4.95;;;2.60;99.90;;;;;;4702718;30;20065;-85
2022/11/17 03:01:38;;;;;;;5.68;5.18;;;2.60;99.90;;;;;;4719476;30;20476;-85
2022/11/17 03:05:19;;;;;;;4.97;4.47;;;2.70;99.90;;;;;;4703172;30;20060;-85
2022/11/17 03:08:19;;;;;;;8.73;6.38;;;2.80;99.90;;;;;;4716098;30;20049;-84
2022/11/17 03:10:59;;;;;;;9.75;8.85;;;2.80;99.90;;;;;;4703327;30;20061;-84
2022/11/17 03:13:47;;;;;;;9.40;7.38;;;3.00;99.90;;;;;;4717759;30;20061;-84
2022/11/17 03:16:27;;;;;;;7.10;5.18;;;3.20;99.90;;;;;;4688122;30;20064;-85
2022/11/17 03:19:11;;;;;;;6.68;6.10;;;3.20;99.90;;;;;;4702675;30;20509;-84
2022/11/17 03:21:49;;;;;;;22.40;8.20;;;3.00;99.90;;;;;;4717808;30;20060;-85
2022/11/17 03:24:26;;;;;;;6.38;5.78;;;2.80;99.90;;;;;;4702680;30;20045;-85
2022/11/17 03:26:59;;;;;;;7.45;6.72;;;2.90;99.90;;;;;;4701938;30;20063;-84
2022/11/17 03:29:29;;;;;;;6.60;5.07;;;2.80;99.90;;;;;;4718624;30;20052;-84
2022/11/17 03:32:01;;;;;;;6.80;4.72;;;2.90;99.90;;;;;;4717227;30;20381;-85
2022/11/17 03:34:34;;;;;;;8.27;6.15;;;3.10;99.90;;;;;;4714523;30;20072;-84
2022/11/17 03:37:05;;;;;;;8.57;6.60;;;3.30;99.90;;;;;;4699440;30;20049;-85
2022/11/17 03:39:36;;;;;;;6.82;6.03;;;3.40;99.90;;;;;;4685351;30;20046;-85
2022/11/17 03:42:18;;;;;;;8.38;7.40;;;3.30;99.90;;;;;;4699813;30;20069;-85
2022/11/17 03:44:54;;;;;;;6.53;5.80;;;3.40;99.90;;;;;;4684962;30;20062;-86
2022/11/17 03:47:24;;;;;;;8.77;6.88;;;3.40;99.90;;;;;;4700313;30;20429;-85
2022/11/17 03:50:14;;;;;;;7.13;6.45;;;3.20;99.90;;;;;;4685138;30;20068;-85
2022/11/17 03:52:43;;;;;;;7.90;6.00;;;3.20;99.90;;;;;;4699150;30;20057;-85
2022/11/17 03:55:14;;;;;;;7.13;5.53;;;3.20;99.90;;;;;;4685134;30;20139;-85
2022/11/17 03:57:59;;;;;;;8.52;6.88;;;3.30;99.90;;;;;;4699417;30;20054;-85
2022/11/17 04:00:27;;;;;;;11.25;7.60;;;3.30;99.90;;;;;;4699240;30;20081;-85
2022/11/17 04:02:57;;;;;;;7.20;6.50;;;3.30;99.90;;;;;;4700153;30;20054;-85
2022/11/17 04:06:30;;;;;;;7.55;6.78;;;3.40;99.90;;;;;;4685535;30;20061;-84
2022/11/17 04:08:57;;;;;;;6.65;6.03;;;3.40;99.90;;;;;;4684465;30;20053;-85
2022/11/17 04:18:06;;;;;;;7.93;5.90;;;3.40;99.90;;;;;;4670640;30;20060;-86
2022/11/17 04:20:36;;;;;;;8.00;6.68;;;3.40;99.90;;;;;;4684488;30;20057;-86
2022/11/17 04:23:06;;;;;;;6.40;5.80;;;3.40;99.90;;;;;;4702591;30;20058;-85
2022/11/17 04:28:36;;;;;;;6.50;4.97;;;3.40;99.90;;;;;;4715719;30;20053;-86
2022/11/17 04:31:21;;;;;;;6.57;5.78;;;3.40;99.90;;;;;;4716463;30;20369;-86
2022/11/17 04:33:51;;;;;;;6.03;5.45;;;3.50;99.90;;;;;;4701940;30;20407;-86
2022/11/17 04:36:23;;;;;;;7.40;6.18;;;3.40;99.90;;;;;;4701549;30;20053;-86
2022/11/17 04:38:53;;;;;;;5.38;4.88;;;3.50;99.90;;;;;;4716086;30;20079;-86
2022/11/17 04:44:10;;;;;;;6.30;5.20;;;3.60;99.90;;;;;;4701126;30;20064;-85
2022/11/17 04:46:39;;;;;;;5.75;4.82;;;3.60;99.90;;;;;;4717797;30;20500;-86
2022/11/17 04:49:07;;;;;;;5.15;4.75;;;3.60;99.90;;;;;;4701107;30;20053;-85
2022/11/17 04:51:36;;;;;;;9.02;5.78;;;3.60;99.90;;;;;;4700990;30;20045;-86
2022/11/17 04:54:05;;;;;;;6.80;6.38;;;3.60;99.90;;;;;;4717372;30;20067;-86
2022/11/17 04:56:33;;;;;;;5.20;4.70;;;3.60;99.90;;;;;;4690350;30;20508;-87
2022/11/17 04:59:02;;;;;;;7.32;5.45;;;3.70;99.90;;;;;;4676962;30;20050;-88
2022/11/17 05:01:30;;;;;;;6.35;4.50;;;3.80;99.90;;;;;;4699273;30;20054;-86
2022/11/17 05:04:00;;;;;;;5.55;4.65;;;3.90;99.90;;;;;;4698440;30;20057;-86
2022/11/17 05:06:34;;;;;;;6.22;4.50;;;3.80;99.90;;;;;;4698677;30;20061;-87
2022/11/17 05:09:07;;;;;;;5.63;4.47;;;3.80;99.90;;;;;;4674086;30;20380;-85
2022/11/17 05:14:25;;;;;;;5.82;4.90;;;4.00;99.90;;;;;;4714423;30;20065;-85
2022/11/17 05:17:04;;;;;;;5.57;4.93;;;3.90;99.90;;;;;;4714775;30;20053;-85
2022/11/17 05:19:38;;;;;;;4.82;3.55;;;3.90;99.90;;;;;;4714953;30;20501;-84
2022/11/17 05:24:54;;;;;;;5.63;5.15;;;3.90;99.90;;;;;;4716896;30;20074;-85
2022/11/17 05:27:28;;;;;;;10.65;4.63;;;3.90;99.90;;;;;;4715171;30;20061;-85
2022/11/17 05:29:55;;;;;;;5.72;4.93;;;3.90;99.90;;;;;;4716894;30;20488;-85
2022/11/17 05:32:23;;;;;;;5.57;4.93;;;3.90;99.90;;;;;;4718033;30;20072;-86
2022/11/17 05:34:55;;;;;;;6.60;5.55;;;3.90;99.90;;;;;;4736735;30;20052;-85
2022/11/17 05:37:23;;;;;;;5.63;4.68;;;3.90;99.90;;;;;;4716239;30;20061;-84
2022/11/17 05:39:51;;;;;;;7.55;5.45;;;3.80;99.90;;;;;;4704819;30;20049;-86
2022/11/17 05:42:22;;;;;;;;;;;3.80;99.90;;;;;;4719264;30;20488;-86
2022/11/17 05:44:50;;;;;;;5.65;4.63;;;3.70;99.90;;;;;;4718315;30;19938;-86
2022/11/17 05:47:17;;;;;;;5.15;4.68;;;3.80;99.90;;;;;;4719819;30;20614;-85
2022/11/17 05:49:47;;;;;;;5.82;5.25;;;3.70;99.90;;;;;;4720310;30;20408;-85
2022/11/17 05:52:15;;;;;;;6.03;5.53;;;3.70;99.90;;;;;;4718700;30;20060;-85
2022/11/17 05:54:43;;;;;;;6.75;6.03;;;3.60;99.90;;;;;;4718823;30;20045;-85
2022/11/17 05:57:18;;;;;;;5.57;4.65;;;3.60;99.90;;;;;;4703285;30;20057;-85
2022/11/17 05:59:51;;;;;;;7.30;6.43;;;3.60;99.90;;;;;;4715271;30;20050;-85
2022/11/17 06:02:30;;;;;;;6.05;5.43;;;3.60;99.90;;;;;;4701624;30;20065;-85
2022/11/17 06:05:09;;;;;;;6.55;5.85;;;3.70;99.90;;;;;;4702188;30;20057;-85
2022/11/17 06:07:44;;;;;;;8.00;5.78;;;3.70;99.90;;;;;;4699972;30;20053;-86
2022/11/17 06:10:17;;;;;;;6.25;5.28;;;3.70;99.90;;;;;;4703418;30;20382;-85
2022/11/17 06:12:49;;;;;;;6.88;6.05;;;3.70;99.90;;;;;;4716216;30;20045;-86
2022/11/17 06:15:16;;;;;;;6.10;5.47;;;3.70;99.90;;;;;;4715599;30;20053;-85
2022/11/17 06:17:52;;;;;;;9.13;6.15;;;3.60;99.90;;;;;;4719175;30;20052;-85
2022/11/17 06:20:33;;;;;;;7.32;6.57;;;3.70;99.90;;;;;;4718993;30;20053;-86
2022/11/17 06:23:07;;;;;;;5.07;4.63;;;3.70;99.90;;;;;;4712055;30;20052;-87
2022/11/17 06:25:36;;;;;;;4.97;4.50;;;3.90;99.90;;;;;;4734878;30;20074;-85
2022/11/17 06:28:09;;;;;;;4.28;3.80;;;4.20;99.90;;;;;;4718904;30;20052;-86
2022/11/17 06:30:38;;;;;;;4.30;3.53;;;4.40;99.90;;;;;;4719665;30;20084;-86
2022/11/17 06:33:09;;;;;;;4.90;3.58;;;4.50;99.90;;;;;;4718946;30;20061;-86
2022/11/17 06:36:09;;;;;;;5.03;3.85;;;4.50;99.90;;;;;;4717206;30;20519;-86
2022/11/17 06:38:40;;;;;;;4.25;3.80;;;4.60;99.90;;;;;;4719495;30;20064;-86
2022/11/17 06:41:11;;;;;;;4.80;3.10;;;4.70;99.90;;;;;;4720194;30;20407;-86
2022/11/17 06:43:39;;;;;;;3.50;3.17;;;4.70;99.90;;;;;;4736294;30;20048;-86
2022/11/17 06:46:09;;;;;;;4.22;3.70;;;4.70;99.90;;;;;;4735533;30;20056;-87
2022/11/17 06:48:36;;;;;;;5.28;4.78;;;4.70;99.90;;;;;;4736475;30;20060;-86
2022/11/17 06:55:58;;;;;;;5.70;5.18;;;4.80;99.90;;;;;;4713733;30;20065;-86
2022/11/17 06:58:49;;;;;;;;;;;;;;;;;;;;;
2022/11/17 07:06:20;;;;;;;;;;;;;;;;;;;;;
2022/11/17 07:09:49;;;;;;;;;;;;;;;;;;;;;
2022/11/17 07:13:57;;;;;;;6.40;5.80;;;4.70;99.90;;;;;;4595535;30;20059;-86
2022/11/17 07:21:00;;;;;;;5.93;5.32;;;4.70;99.90;;;;;;4600614;31;20066;-87
2022/11/17 07:24:38;;;;;;;4.38;3.60;;;4.90;99.90;;;;;;4649610;30;20060;-87
2022/11/17 07:27:41;;;;;;;5.18;3.70;;;4.80;99.90;;;;;;4663823;30;20065;-86
2022/11/17 07:30:53;;;;;;;4.72;4.15;;;4.90;99.90;;;;;;4664802;30;20058;-86
2022/11/17 07:33:35;;;;;;;5.32;3.65;;;4.90;99.90;;;;;;4646897;30;20081;-84
2022/11/17 07:36:06;;;;;;;4.78;4.38;;;4.90;99.90;;;;;;4646876;30;20407;-84
2022/11/17 07:38:34;;;;;;;5.18;4.65;;;4.90;99.90;;;;;;4647305;30;20055;-84
2022/11/17 07:41:03;;;;;;;6.10;4.63;;;4.90;99.90;;;;;;4647096;30;20055;-84
2022/11/17 07:43:32;;;;;;;5.22;4.13;;;4.90;99.90;;;;;;4636821;30;20051;-85
2022/11/17 07:46:10;;;;;;;7.85;7.05;;;4.90;99.90;;;;;;4685173;30;20053;-84
2022/11/17 07:48:38;;;;;;;5.72;5.13;;;5.00;99.90;;;;;;4715838;30;20061;-84
2022/11/17 07:51:06;;;;;;;3.90;3.55;;;5.10;99.90;;;;;;4699500;30;20041;-84
2022/11/17 07:53:34;;;;;;;8.85;5.05;;;5.10;99.90;;;;;;4715755;30;20057;-84
2022/11/17 07:56:07;;;;;;;5.82;5.30;;;5.20;99.90;;;;;;4701461;30;20061;-84
2022/11/17 07:58:41;;;;;;;5.22;4.68;;;5.20;99.90;;;;;;4701958;30;20053;-87
2022/11/17 08:01:14;;;;;;;3.63;3.30;;;5.20;99.90;;;;;;4689473;30;20496;-86
2022/11/17 08:03:57;;;;;;;7.03;4.38;;;5.20;99.90;;;;;;4713837;30;20052;-86
2022/11/17 08:06:34;;;;;;;4.75;4.22;;;5.20;99.90;;;;;;4702782;30;20438;-86
2022/11/17 08:09:06;;;;;;;5.40;4.90;;;5.20;99.90;;;;;;4716117;30;20536;-86
2022/11/17 08:11:36;;;;;;;4.43;4.13;;;5.30;99.90;;;;;;4699269;30;20053;-86
2022/11/17 08:14:15;;;;;;;4.85;4.32;;;5.40;99.90;;;;;;4688875;30;20392;-86
2022/11/17 08:17:02;;;;;;;5.10;4.07;;;5.50;99.90;;;;;;4680457;30;20045;-86
2022/11/17 08:19:45;;;;;;;7.18;4.70;;;5.60;99.90;;;;;;4686926;30;20412;-87
2022/11/17 08:22:30;;;;;;;4.30;3.90;;;5.70;99.90;;;;;;4704266;30;20060;-87
2022/11/17 08:25:24;;;;;;;5.60;4.35;;;5.70;99.90;;;;;;4689317;30;20496;-87
2022/11/17 08:27:58;;;;;;;11.80;4.53;;;5.70;99.90;;;;;;4701478;30;20046;-87
2022/11/17 08:30:33;;;;;;;6.22;4.18;;;5.70;99.90;;;;;;4701833;30;20057;-87
2022/11/17 08:33:03;;;;;;;5.07;4.68;;;5.70;99.90;;;;;;4716176;30;20555;-87
2022/11/17 08:35:42;;;;;;;4.30;3.72;;;5.70;99.90;;;;;;4715820;30;20049;-87
2022/11/17 08:38:20;;;;;;;4.88;4.00;;;5.60;99.90;;;;;;4696607;30;20060;-87
2022/11/17 08:41:04;;;;;;;4.53;4.22;;;5.60;99.90;;;;;;4712437;30;20059;-87
2022/11/17 08:43:45;;;;;;;6.63;5.33;;;5.50;99.90;;;;;;4697181;30;20042;-88
2022/11/17 08:46:14;;;;;;;5.95;4.13;;;5.70;99.90;;;;;;4701364;30;20315;-84
2022/11/17 08:48:42;;;;;;;5.18;4.05;;;5.60;99.90;;;;;;4717316;30;20049;-86
2022/11/17 08:51:12;;;;;;;4.90;3.90;;;5.60;99.90;;;;;;4715743;30;20045;-85
2022/11/17 08:53:49;;;;;;;3.63;3.33;;;5.60;99.90;;;;;;4704960;30;20397;-89
2022/11/17 08:56:28;;;;;;;5.95;5.45;;;5.60;99.90;;;;;;4691165;30;20060;-86
2022/11/17 08:58:55;;;;;;;4.50;4.07;;;5.60;99.90;;;;;;4712844;30;20053;-84
2022/11/17 09:01:26;;;;;;;5.45;4.97;;;5.70;99.90;;;;;;4684555;30;20404;-86
2022/11/17 09:04:55;;;;;;;3.97;3.63;;;5.70;99.90;;;;;;4708721;30;20049;-87
2022/11/17 09:07:22;;;;;;;4.00;3.63;;;5.90;99.90;;;;;;4715205;30;20052;-85
2022/11/17 09:09:51;;;;;;;3.95;3.25;;;6.10;99.90;;;;;;4719301;30;20071;-85
2022/11/17 09:12:19;;;;;;;3.85;3.53;;;6.30;99.90;;;;;;4719667;30;20060;-85
2022/11/17 09:15:03;;;;;;;3.97;3.67;;;6.40;99.90;;;;;;4720044;30;20053;-88
2022/11/17 09:17:53;;;;;;;2.85;2.47;;;6.80;99.90;;;;;;4719400;30;20060;-90
2022/11/17 09:20:40;;;;;;;3.05;2.70;;;7.10;99.90;;;;;;4718982;30;20056;-87
2022/11/17 09:23:23;;;;;;;4.35;4.05;;;7.30;99.90;;;;;;4711280;30;20041;-88
2022/11/17 09:26:08;;;;;;;4.55;4.10;;;7.40;99.90;;;;;;4719870;30;20049;-88
2022/11/17 09:28:49;;;;;;;3.47;2.40;;;7.70;99.90;;;;;;4720119;30;20049;-88
2022/11/17 09:31:56;;;;;;;2.97;2.70;;;7.60;99.90;;;;;;4710045;30;20779;-88
2022/11/17 09:35:17;;;;;;;2.28;2.08;;;7.80;99.90;;;;;;4708240;30;20057;-86
2022/11/17 09:38:21;;;;;;;2.67;2.47;;;7.90;99.90;;;;;;4710587;30;20981;-89
2022/11/17 09:41:42;;;;;;;2.85;2.65;;;7.90;99.90;;;;;;4681565;30;20404;-89
2022/11/17 09:44:22;;;;;;;3.17;2.92;;;8.00;99.90;;;;;;4705752;30;20503;-85
2022/11/17 09:47:31;;;;;;;7.35;6.75;;;8.10;99.90;;;;;;4716918;30;20052;-88
2022/11/17 09:50:34;;;;;;;3.17;2.97;;;8.20;99.90;;;;;;4718660;30;20503;-86
2022/11/17 09:53:14;;;;;;;3.42;3.15;;;8.30;99.90;;;;;;4719404;30;20060;-86
2022/11/17 09:55:52;;;;;;;4.05;3.75;;;8.50;99.90;;;;;;4718757;30;20060;-88
2022/11/17 09:58:54;;;;;;;3.60;3.20;;;8.50;99.90;;;;;;4718058;30;20492;-86
2022/11/17 10:01:53;;;;;;;7.13;3.33;;;8.70;99.90;;;;;;4718960;30;20056;-87
2022/11/17 10:04:37;;;;;;;4.72;2.55;;;8.70;99.90;;;;;;4688408;30;20504;-87
2022/11/17 10:08:08;;;;;;;;;;;;;;;;;;;;;
2022/11/17 10:12:25;;;;;;;2.65;2.45;;;8.80;99.90;;;;;;4608259;30;20082;-89
2022/11/17 10:16:13;;;;;;;3.40;3.10;;;8.80;99.90;;;;;;4598737;31;20051;-87
2022/11/17 10:24:02;;;;;;;4.47;3.58;;;8.70;99.90;;;;;;4598889;31;20059;-89
2022/11/17 10:27:58;;;;;;;;;;;;;;;;;;;;;
2022/11/17 10:36:45;;;;;;;5.32;3.05;;;9.10;99.90;;;;;;4573990;30;20093;-88
2022/11/17 10:40:22;;;;;;;5.68;3.50;;;9.40;99.90;;;;;;4591401;30;20045;-88
2022/11/17 10:43:22;;;;;;;2.30;2.10;;;9.60;99.90;;;;;;4615244;30;20047;-87
2022/11/17 10:46:02;;;;;;;3.42;2.42;;;9.50;99.90;;;;;;4615323;30;20060;-86
2022/11/17 10:48:34;;;;;;;2.13;1.92;;;9.30;99.90;;;;;;4614707;30;20063;-87
2022/11/17 10:51:21;;;;;;;5.20;2.75;;;9.30;99.90;;;;;;4595031;30;20075;-88
2022/11/17 10:54:24;;;;;;;2.80;2.50;;;9.20;99.90;;;;;;4622403;31;20079;-88
2022/11/17 10:56:57;;;;;;;2.50;2.08;;;9.20;99.90;;;;;;4586991;30;20052;-87
2022/11/17 10:59:32;;;;;;;3.03;2.55;;;9.20;99.90;;;;;;4614255;30;20048;-87
2022/11/17 11:02:34;;;;;;;3.63;3.33;;;9.20;99.90;;;;;;4601702;30;20067;-88
2022/11/17 11:05:11;;;;;;;3.25;2.92;;;9.20;99.90;;;;;;4628156;30;20055;-88
2022/11/17 11:07:42;;;;;;;3.00;2.65;;;9.30;99.90;;;;;;4614168;30;20049;-88
2022/11/17 11:10:33;;;;;;;3.08;2.78;;;9.20;99.90;;;;;;4699979;30;20073;-89
2022/11/17 11:13:16;;;;;;;2.58;2.38;;;9.20;99.90;;;;;;4705757;30;20068;-89
2022/11/17 11:16:04;;;;;;;4.88;2.63;;;9.30;99.90;;;;;;4695233;30;20069;-89
2022/11/17 11:19:00;;;;;;;5.45;2.45;;;9.40;99.90;;;;;;4656175;30;20620;-87
2022/11/17 11:21:58;;;;;;;3.05;2.65;;;9.50;99.90;;;;;;4663515;30;20070;-89
2022/11/17 11:25:46;;;;;;;8.13;4.00;;;9.60;99.90;;;;;;4677918;30;20054;-88
2022/11/17 11:29:01;;;;;;;2.53;2.33;;;9.80;99.90;;;;;;4617790;30;20056;-89
2022/11/17 11:31:43;;;;;;;5.65;2.63;;;10.10;99.90;;;;;;4677859;30;20058;-88
2022/11/17 11:35:07;;;;;;;4.32;2.88;;;10.20;99.90;;;;;;4675479;30;20145;-89
2022/11/17 11:38:22;;;;;;;3.00;2.70;;;10.20;99.90;;;;;;4677291;30;20071;-89
2022/11/17 11:41:19;;;;;;;2.92;2.72;;;10.10;99.90;;;;;;4680725;30;20065;-88
2022/11/17 11:44:29;;;;;;;2.90;2.65;;;9.90;99.90;;;;;;4704837;30;20072;-89
2022/11/17 11:47:22;;;;;;;7.15;3.05;;;10.00;99.90;;;;;;4699909;30;20075;-87
2022/11/17 11:50:20;;;;;;;3.20;2.70;;;10.10;99.90;;;;;;4715309;30;20064;-89
2022/11/17 11:53:38;;;;;;;2.33;2.20;;;10.20;99.90;;;;;;4713875;30;20045;-88
2022/11/17 11:56:48;;;;;;;5.85;3.42;;;10.10;99.90;;;;;;4679158;30;20065;-90
2022/11/17 12:00:15;;;;;;;4.65;3.55;;;10.00;99.90;;;;;;4683883;30;20053;-91
2022/11/17 12:03:05;;;;;;;4.90;3.58;;;9.90;99.90;;;;;;4712978;30;20120;-89
2022/11/17 12:10:52;;;;;;;3.33;3.03;;;9.70;99.90;;;;;;4692827;30;20061;-87
2022/11/17 12:13:50;;;;;;;2.53;2.33;;;9.80;99.90;;;;;;4670700;30;20069;-88
2022/11/17 12:16:43;;;;;;;3.97;3.67;;;9.70;99.90;;;;;;4649796;30;20324;-90
2022/11/17 12:31:34;;;;;;;3.22;2.95;;;9.90;99.90;;;;;;4687077;30;20053;-91
2022/11/17 12:49:16;;;;;;;3.10;2.80;;;9.60;99.90;;;;;;5318983;25;20507;31
2022/11/17 12:56:19;;;;;;;5.70;3.33;;;9.60;99.90;;;;;;4717579;24;20069;-90
2022/11/17 13:04:48;;;;;;;5.20;4.70;;;9.50;99.90;;;;;;3650157;24;20063;-92
2022/11/17 13:31:36;;;;;;;3.90;3.60;;;9.80;99.90;;;;;;4604755;30;20054;-88
2022/11/17 13:35:12;;;;;;;3.50;2.97;;;9.80;99.90;;;;;;4580001;30;20055;-92
2022/11/17 13:43:49;;;;;;;3.28;3.00;;;9.60;99.90;;;;;;4654569;30;20077;-90
2022/11/17 14:20:24;;;;;;;5.10;4.68;;;9.10;99.90;;;;;;4608570;30;20046;-87
2022/11/17 14:23:09;;;;;;;3.88;3.38;;;8.90;99.90;;;;;;4666282;30;20054;-85
2022/11/17 14:26:27;;;;;;;;;;;;;;;;;;;;;
2022/11/17 15:49:32;;;;;;;3.22;2.95;;;6.20;99.90;;;;;;4885441;24;21300;-88
2022/11/17 15:52:01;;;;;;;29.23;6.03;;;6.10;99.90;;;;;;4643847;30;20077;-93
2022/11/17 15:56:25;;;;;;;8.35;2.33;;;6.00;99.90;;;;;;4639762;30;20058;-88
2022/11/17 15:59:52;;;;;;;8.38;4.57;;;6.00;99.90;;;;;;4577031;30;20539;-87
2022/11/17 16:02:22;;;;;;;3.75;3.45;;;6.10;99.90;;;;;;4594726;31;20452;-87
2022/11/17 16:22:51;;;;;;;4.30;3.05;;;5.50;99.90;;;;;;4615057;31;20058;-91
2022/11/17 16:40:28;;;;;;;3.92;3.33;;;6.10;99.90;;;;;;4891622;24;20060;-88
2022/11/17 16:47:34;;;;;;;4.05;3.75;;;5.60;99.90;;;;;;4929953;25;20315;-88
2022/11/17 16:59:49;;;;;;;8.68;3.70;;;5.40;99.90;;;;;;4619103;30;20055;-88
2022/11/17 17:03:19;;;;;;;29.00;6.47;;;5.20;99.90;;;;;;4582476;31;20096;-88
2022/11/17 17:08:02;;;;;;;51.38;6.97;;;5.20;99.90;;;;;;4611252;30;20074;-87
2022/11/17 17:12:09;;;;;;;;;;;;;;;;;;;;;
2022/11/17 17:16:20;;;;;;;12.95;9.38;;;5.40;99.90;;;;;;4633923;30;19953;-88
2022/11/17 17:19:50;;;;;;;96.90;9.88;;;5.60;99.90;;;;;;4632092;30;20051;-85
2022/11/17 17:22:55;;;;;;;12.60;6.30;;;5.10;99.90;;;;;;4689802;30;20072;-86
2022/11/17 17:26:04;;;;;;;10.70;4.22;;;4.80;99.90;;;;;;4598446;31;20051;-86
2022/11/17 17:28:33;;;;;;;31.60;6.53;;;4.70;99.90;;;;;;4614684;31;20056;-85
2022/11/17 17:31:07;;;;;;;34.95;8.00;;;4.70;99.90;;;;;;4601832;30;20064;-86
2022/11/17 17:33:38;;;;;;;14.40;9.80;;;4.70;99.90;;;;;;4632966;30;20077;-84
2022/11/17 17:36:30;;;;;;;10.95;7.93;;;4.90;99.90;;;;;;4657741;30;20057;-88
2022/11/17 17:39:04;;;;;;;11.07;8.63;;;5.30;99.90;;;;;;4681628;30;20524;-83
2022/11/17 17:41:36;;;;;;;67.40;13.15;;;5.50;99.90;;;;;;4683881;30;20064;-84
2022/11/17 17:44:07;;;;;;;30.27;8.23;;;5.30;99.90;;;;;;4720548;30;20049;-81
2022/11/17 17:46:37;;;;;;;68.05;10.00;;;5.20;99.90;;;;;;4718214;30;20061;-82
2022/11/17 17:49:06;;;;;;;7.40;5.38;;;5.20;99.90;;;;;;4719305;30;20060;-86
2022/11/17 17:51:53;;;;;;;25.25;6.10;;;5.20;99.90;;;;;;4685995;30;20061;-85
2022/11/17 17:54:29;;;;;;;27.83;10.93;;;5.40;99.90;;;;;;4686554;30;20505;-84
2022/11/17 17:57:00;;;;;;;27.42;8.43;;;5.20;99.90;;;;;;4688348;30;20072;-85
2022/11/17 17:59:28;;;;;;;6.90;5.65;;;5.10;99.90;;;;;;4716829;30;20053;-84
2022/11/17 18:01:56;;;;;;;10.02;7.32;;;5.20;99.90;;;;;;4718079;30;20068;-85
2022/11/17 18:05:49;;;;;;;5.28;4.43;;;5.30;99.90;;;;;;4702212;30;20064;-87
2022/11/17 18:08:52;;;;;;;6.72;4.45;;;5.40;99.90;;;;;;4669914;30;20066;-87
2022/11/17 18:11:27;;;;;;;10.32;5.93;;;5.40;99.90;;;;;;4653939;30;20425;-83
2022/11/17 18:13:54;;;;;;;6.32;5.47;;;5.30;99.90;;;;;;4682900;30;20066;-83
2022/11/17 18:16:30;;;;;;;12.13;7.93;;;5.20;99.90;;;;;;4682253;30;20076;-85
2022/11/17 18:19:07;;;;;;;;;;;5.10;99.90;;;;;;4672434;30;20054;-85
2022/11/17 18:21:35;;;;;;;13.32;7.85;;;5.20;99.90;;;;;;4668777;30;20291;-82
2022/11/17 18:24:03;;;;;;;44.38;9.40;;;5.30;99.90;;;;;;4682278;30;20050;-84
2022/11/17 18:26:32;;;;;;;92.28;16.40;;;5.20;99.90;;;;;;4671458;30;20559;-84
2022/11/17 18:29:03;;;;;;;25.33;10.95;;;5.00;99.90;;;;;;4652022;30;20896;-83
2022/11/17 18:31:35;;;;;;;28.15;11.25;;;4.90;99.90;;;;;;4651551;30;20144;-88
2022/11/17 18:34:19;;;;;;;13.95;10.05;;;4.90;99.90;;;;;;4670547;30;20062;-88
2022/11/17 18:36:48;;;;;;;25.50;7.82;;;4.90;99.90;;;;;;4657272;30;20147;-88
2022/11/17 18:39:16;;;;;;;86.32;10.63;;;4.70;99.90;;;;;;4675860;30;20053;-88
2022/11/17 18:41:44;;;;;;;91.05;12.18;;;4.60;99.90;;;;;;4683481;30;20514;-88
2022/11/17 18:44:15;;;;;;;135.15;13.70;;;4.60;99.90;;;;;;4717625;30;20053;-88
2022/11/17 18:46:43;;;;;;;60.63;8.27;;;4.70;99.90;;;;;;4720994;30;20064;-88
2022/11/17 18:49:10;;;;;;;46.50;5.88;;;4.70;99.90;;;;;;4732762;30;20146;-88
2022/11/17 18:51:39;;;;;;;55.72;10.88;;;4.40;99.90;;;;;;4692206;30;20044;-88
2022/11/17 18:54:10;;;;;;;101.30;9.60;;;4.20;99.90;;;;;;4735758;30;20067;-88
2022/11/17 18:56:38;;;;;;;77.85;14.10;;;4.40;99.90;;;;;;4723957;30;20049;-88
2022/11/17 18:59:10;;;;;;;22.92;11.07;;;4.80;99.90;;;;;;4702365;30;20045;-88
2022/11/17 19:01:39;;;;;;;22.20;10.50;;;5.00;99.90;;;;;;4703873;30;20070;-88
2022/11/17 19:04:12;;;;;;;23.90;6.85;;;5.10;99.90;;;;;;4688459;30;20057;-88
2022/11/17 19:06:40;;;;;;;82.45;11.70;;;4.80;99.90;;;;;;4703422;30;20053;-88
2022/11/17 19:09:07;;;;;;;6.30;5.78;;;4.60;99.90;;;;;;4717338;30;20057;-88
2022/11/17 19:11:35;;;;;;;7.35;5.35;;;4.60;99.90;;;;;;4702743;30;20044;-88
2022/11/17 19:14:06;;;;;;;66.53;8.55;;;4.80;99.90;;;;;;4703434;30;20057;-89